createdAt,value
2023-03-26T00:02:07.773Z,58.79
2023-03-26T00:04:39.333Z,57.07
2023-03-26T00:07:10.966Z,56.74
2023-03-26T00:09:42.704Z,56.78
2023-03-26T00:12:14.300Z,56.07
2023-03-26T00:14:45.846Z,57.29
2023-03-26T00:17:17.381Z,61.18
2023-03-26T00:19:49.000Z,59.84
2023-03-26T00:22:20.606Z,61.86
2023-03-26T00:24:52.236Z,60.27
2023-03-26T00:27:23.838Z,59.33
2023-03-26T00:29:55.440Z,59.63
2023-03-26T00:32:30.280Z,61.56
2023-03-26T00:35:01.882Z,57.94
2023-03-26T00:37:33.522Z,57.55
2023-03-26T00:40:05.835Z,58.16
2023-03-26T00:42:38.047Z,57.65
2023-03-26T00:45:10.140Z,56.77
2023-03-26T00:47:41.924Z,57.57
2023-03-26T00:50:13.590Z,56.47
2023-03-26T00:52:46.239Z,56.58
2023-03-26T00:55:17.820Z,56.52
2023-03-26T00:57:49.484Z,57.14
2023-03-26T01:00:32.049Z,57.05
2023-03-26T01:03:05.954Z,56.54
2023-03-26T01:05:48.488Z,57.75
2023-03-26T01:08:26.920Z,58.80
2023-03-26T01:11:02.615Z,58.61
2023-03-26T01:13:38.824Z,59.07
2023-03-26T01:16:48.408Z,58.29
2023-03-26T01:19:38.411Z,59.78
2023-03-26T01:22:14.740Z,59.22
2023-03-26T01:24:47.469Z,57.84
2023-03-26T01:27:19.042Z,60.25
2023-03-26T01:29:53.979Z,59.13
2023-03-26T01:32:38.988Z,56.33
2023-03-26T01:35:40.219Z,55.75
2023-03-26T01:38:28.631Z,57.89
2023-03-26T01:41:25.367Z,57.79
2023-03-26T01:44:09.240Z,59.07
2023-03-26T01:46:42.255Z,62.83
2023-03-26T01:49:13.998Z,62.37
2023-03-26T01:51:45.999Z,61.82
2023-03-26T01:54:24.127Z,61.06
2023-03-26T01:57:17.031Z,60.08
2023-03-26T01:59:57.935Z,61.12
2023-03-26T02:02:51.314Z,60.84
2023-03-26T02:05:47.177Z,60.54
2023-03-26T02:08:24.574Z,59.13
2023-03-26T02:11:02.284Z,59.77
2023-03-26T02:13:34.308Z,62.08
2023-03-26T02:16:09.909Z,61.67
2023-03-26T02:18:43.571Z,61.09
2023-03-26T02:21:18.975Z,60.50
2023-03-26T02:23:57.052Z,60.63
2023-03-26T02:26:32.458Z,60.66
2023-03-26T02:29:15.029Z,60.00
2023-03-26T02:31:50.136Z,60.14
2023-03-26T02:34:22.133Z,60.85
2023-03-26T02:36:55.987Z,60.19
2023-03-26T02:39:30.634Z,59.82
2023-03-26T02:42:11.474Z,60.35
2023-03-26T02:44:50.696Z,60.15
2023-03-26T02:47:25.265Z,59.98
2023-03-26T02:49:57.074Z,60.45
2023-03-26T02:52:36.196Z,59.77
2023-03-26T02:55:08.331Z,59.53
2023-03-26T02:57:41.291Z,60.66
2023-03-26T03:00:21.925Z,60.56
2023-03-26T03:02:59.406Z,61.36
2023-03-26T03:05:36.877Z,60.27
2023-03-26T03:08:33.712Z,61.46
2023-03-26T03:11:25.604Z,61.04
2023-03-26T03:13:57.238Z,61.90
2023-03-26T03:16:33.759Z,62.16
2023-03-26T03:19:10.835Z,63.00
2023-03-26T03:21:43.588Z,62.86
2023-03-26T03:24:15.278Z,61.76
2023-03-26T03:26:50.305Z,61.92
2023-03-26T03:29:35.656Z,61.82
2023-03-26T03:32:27.193Z,61.30
2023-03-26T03:35:04.113Z,61.30
2023-03-26T03:37:36.652Z,61.18
2023-03-26T03:40:10.365Z,60.26
2023-03-26T03:42:43.386Z,60.14
2023-03-26T03:45:16.798Z,59.40
2023-03-26T03:47:51.159Z,59.08
2023-03-26T03:50:29.159Z,59.51
2023-03-26T03:53:24.048Z,60.71
2023-03-26T03:55:57.164Z,61.41
2023-03-26T03:58:38.785Z,61.12
2023-03-26T04:04:15.080Z,62.65
2023-03-26T04:07:02.348Z,62.86
2023-03-26T04:09:45.144Z,62.89
2023-03-26T04:12:21.664Z,62.52
2023-03-26T04:15:06.514Z,61.71
2023-03-26T04:17:38.740Z,61.27
2023-03-26T04:20:12.129Z,61.67
2023-03-26T04:22:44.003Z,61.68
2023-03-26T04:25:17.427Z,61.86
2023-03-26T04:27:49.083Z,62.23
2023-03-26T04:30:28.628Z,62.70
2023-03-26T04:33:12.468Z,63.84
2023-03-26T04:35:44.379Z,64.97
2023-03-26T04:38:18.892Z,65.15
2023-03-26T04:40:53.792Z,64.79
2023-03-26T04:43:46.089Z,64.68
2023-03-26T04:46:38.526Z,65.10
2023-03-26T04:49:20.149Z,65.67
2023-03-26T04:51:52.031Z,64.94
2023-03-26T04:54:45.178Z,65.66
2023-03-26T04:57:37.360Z,66.19
2023-03-26T05:00:16.348Z,65.45
2023-03-26T05:02:50.955Z,67.49
2023-03-26T05:05:25.004Z,67.67
2023-03-26T05:07:57.097Z,67.90
2023-03-26T05:10:28.857Z,68.89
2023-03-26T05:13:06.872Z,69.68
2023-03-26T05:15:41.280Z,69.44
2023-03-26T05:18:33.160Z,70.70
2023-03-26T05:21:06.366Z,70.79
2023-03-26T05:23:38.893Z,72.41
2023-03-26T05:26:19.250Z,72.07
2023-03-26T05:28:52.687Z,71.07
2023-03-26T05:31:31.099Z,70.45
2023-03-26T05:34:04.260Z,70.43
2023-03-26T05:36:36.756Z,69.91
2023-03-26T05:39:40.471Z,69.39
2023-03-26T05:42:42.098Z,68.83
2023-03-26T05:45:33.966Z,68.33
2023-03-26T05:48:16.209Z,67.99
2023-03-26T05:50:49.502Z,66.77
2023-03-26T05:53:23.795Z,67.05
2023-03-26T05:56:13.778Z,67.00
2023-03-26T05:59:04.237Z,67.45
2023-03-26T06:01:35.838Z,68.20
2023-03-26T06:04:27.835Z,68.81
2023-03-26T06:07:29.006Z,69.17
2023-03-26T06:10:17.946Z,70.97
2023-03-26T06:12:50.782Z,71.22
2023-03-26T06:15:24.141Z,71.17
2023-03-26T06:18:16.761Z,71.98
2023-03-26T06:20:48.363Z,72.54
2023-03-26T06:23:33.814Z,73.57
2023-03-26T06:26:16.081Z,73.50
2023-03-26T06:29:06.065Z,73.63
2023-03-26T06:32:06.224Z,73.90
2023-03-26T06:34:51.634Z,74.19
2023-03-26T06:37:23.312Z,73.46
2023-03-26T06:40:00.608Z,73.84
2023-03-26T06:43:08.301Z,74.26
2023-03-26T06:46:05.727Z,74.86
2023-03-26T06:48:43.346Z,74.41
2023-03-26T06:51:33.183Z,74.52
2023-03-26T06:54:10.642Z,73.55
2023-03-26T06:56:51.220Z,74.67
2023-03-26T06:59:43.175Z,74.49
2023-03-26T07:02:33.485Z,74.89
2023-03-26T07:05:31.220Z,75.61
2023-03-26T07:08:40.688Z,75.40
2023-03-26T07:11:32.316Z,75.58
2023-03-26T07:14:32.973Z,75.28
2023-03-26T07:17:14.414Z,75.23
2023-03-26T07:20:08.890Z,75.95
2023-03-26T07:22:41.316Z,75.65
2023-03-26T07:25:22.393Z,75.29
2023-03-26T07:29:04.732Z,75.91
2023-03-26T07:32:08.097Z,76.35
2023-03-26T07:35:49.089Z,77.63
2023-03-26T07:38:45.805Z,76.70
2023-03-26T07:41:50.030Z,75.40
2023-03-26T07:44:58.474Z,75.32
2023-03-26T07:47:56.242Z,74.24
2023-03-26T07:50:32.084Z,74.79
2023-03-26T07:53:16.445Z,74.39
2023-03-26T07:56:11.735Z,74.74
2023-03-26T07:59:35.115Z,75.40
2023-03-26T08:02:40.178Z,75.11
2023-03-26T08:05:35.612Z,75.04
2023-03-26T08:08:52.442Z,74.66
2023-03-26T08:11:45.179Z,75.14
2023-03-26T08:14:38.677Z,75.63
2023-03-26T08:17:41.810Z,76.04
2023-03-26T08:20:13.421Z,76.69
2023-03-26T08:22:53.171Z,76.34
2023-03-26T08:25:39.397Z,76.32
2023-03-26T08:28:29.357Z,75.59
2023-03-26T08:31:01.185Z,75.37
2023-03-26T08:33:32.864Z,73.74
2023-03-26T08:36:04.777Z,72.12
2023-03-26T08:38:36.509Z,73.21
2023-03-26T08:41:11.208Z,73.46
2023-03-26T08:43:55.602Z,73.31
2023-03-26T08:47:11.859Z,72.75
2023-03-26T08:50:03.296Z,72.86
2023-03-26T08:52:59.109Z,72.82
2023-03-26T08:55:45.399Z,73.00
2023-03-26T08:58:40.250Z,73.42
2023-03-26T09:01:21.191Z,73.10
2023-03-26T09:03:52.833Z,74.35
2023-03-26T09:07:07.032Z,74.94
2023-03-26T09:09:51.393Z,74.15
2023-03-26T09:12:55.340Z,74.01
2023-03-26T09:16:01.036Z,72.48
2023-03-26T09:18:33.165Z,71.72
2023-03-26T09:21:23.988Z,73.57
2023-03-26T09:24:19.869Z,74.84
2023-03-26T09:26:57.746Z,75.72
2023-03-26T09:30:00.376Z,73.64
2023-03-26T09:32:53.614Z,73.06
2023-03-26T09:35:53.953Z,73.77
2023-03-26T09:38:45.173Z,73.58
2023-03-26T09:41:56.724Z,73.67
2023-03-26T09:44:56.291Z,73.73
2023-03-26T09:47:39.510Z,73.79
2023-03-26T09:50:14.097Z,73.49
2023-03-26T09:53:12.699Z,73.30
2023-03-26T09:56:08.864Z,72.17
2023-03-26T09:58:46.531Z,74.59
2023-03-26T10:01:36.895Z,74.59
2023-03-26T10:04:18.114Z,72.76
2023-03-26T10:07:08.614Z,74.90
2023-03-26T10:09:52.434Z,72.97
2023-03-26T10:12:27.397Z,74.67
2023-03-26T10:15:23.964Z,74.81
2023-03-26T10:18:27.314Z,74.45
2023-03-26T10:21:16.017Z,73.35
2023-03-26T10:24:18.724Z,73.60
2023-03-26T10:27:10.777Z,73.63
2023-03-26T10:30:13.282Z,72.64
2023-03-26T10:33:08.282Z,72.74
2023-03-26T10:35:52.764Z,72.48
2023-03-26T10:38:52.513Z,72.27
2023-03-26T10:41:33.634Z,72.05
2023-03-26T10:44:29.777Z,71.43
2023-03-26T10:47:10.287Z,71.71
2023-03-26T10:50:23.174Z,72.02
2023-03-26T10:53:07.979Z,71.54
2023-03-26T10:55:44.746Z,71.23
2023-03-26T10:58:28.395Z,72.04
2023-03-26T11:01:10.461Z,71.48
2023-03-26T11:04:14.518Z,71.56
2023-03-26T11:06:49.032Z,70.86
2023-03-26T11:09:57.415Z,70.31
2023-03-26T11:13:06.667Z,70.25
2023-03-26T11:16:03.718Z,72.02
2023-03-26T11:18:38.351Z,72.23
2023-03-26T11:21:30.000Z,70.81
2023-03-26T11:24:07.426Z,71.33
2023-03-26T11:26:53.418Z,71.82
2023-03-26T11:29:55.953Z,67.42
2023-03-26T11:32:45.938Z,67.91
2023-03-26T11:35:41.142Z,69.54
2023-03-26T11:38:31.340Z,69.68
2023-03-26T11:41:11.659Z,71.95
2023-03-26T11:44:06.045Z,72.29
2023-03-26T11:46:43.860Z,72.58
2023-03-26T11:49:20.133Z,73.80
2023-03-26T11:51:52.011Z,72.47
2023-03-26T11:54:23.579Z,73.10
2023-03-26T11:57:08.524Z,72.30
2023-03-26T11:59:57.954Z,70.57
2023-03-26T12:02:38.743Z,67.89
2023-03-26T12:05:13.513Z,66.76
2023-03-26T12:07:50.006Z,67.27
2023-03-26T12:10:30.630Z,68.65
2023-03-26T12:13:16.369Z,69.40
2023-03-26T12:15:48.449Z,69.68
2023-03-26T12:18:25.474Z,69.97
2023-03-26T12:21:15.577Z,68.79
2023-03-26T12:24:02.234Z,68.78
2023-03-26T12:26:38.439Z,68.50
2023-03-26T12:29:18.193Z,68.08
2023-03-26T12:32:14.066Z,66.80
2023-03-26T12:34:46.147Z,67.68
2023-03-26T12:37:50.429Z,69.41
2023-03-26T12:40:22.416Z,70.45
2023-03-26T12:44:48.635Z,67.82
2023-03-26T12:46:03.691Z,70.59
2023-03-26T12:48:49.035Z,72.18
2023-03-26T12:51:20.736Z,73.27
2023-03-26T12:54:27.896Z,73.54
2023-03-26T12:57:22.070Z,71.88
2023-03-26T13:00:12.279Z,72.33
2023-03-26T13:03:28.970Z,69.59
2023-03-26T13:06:22.781Z,70.14
2023-03-26T13:09:31.879Z,66.52
2023-03-26T13:12:30.777Z,66.97
2023-03-26T13:15:20.292Z,65.14
2023-03-26T13:18:02.353Z,65.00
2023-03-26T13:20:53.011Z,63.19
2023-03-26T13:23:40.667Z,63.38
2023-03-26T13:26:15.339Z,62.29
2023-03-26T13:29:04.355Z,60.05
2023-03-26T13:31:46.099Z,60.42
2023-03-26T13:34:23.790Z,60.42
2023-03-26T13:37:11.185Z,60.84
2023-03-26T13:39:53.368Z,57.87
2023-03-26T13:42:37.771Z,59.59
2023-03-26T13:45:45.199Z,61.97
2023-03-26T13:48:24.392Z,65.74
2023-03-26T13:51:17.714Z,66.75
2023-03-26T13:54:05.953Z,65.88
2023-03-26T13:56:47.496Z,67.93
2023-03-26T13:59:40.380Z,66.25
2023-03-26T14:02:28.735Z,67.65
2023-03-26T14:05:09.567Z,68.17
2023-03-26T14:08:01.490Z,68.57
2023-03-26T14:10:40.931Z,68.82
2023-03-26T14:13:54.348Z,68.66
2023-03-26T14:16:37.476Z,68.32
2023-03-26T14:19:21.789Z,69.05
2023-03-26T14:22:25.359Z,67.19
2023-03-26T14:25:42.017Z,67.37
2023-03-26T14:28:49.022Z,65.43
2023-03-26T14:31:46.028Z,65.15
2023-03-26T14:34:39.635Z,65.25
2023-03-26T14:37:27.262Z,66.74
2023-03-26T14:40:27.202Z,65.08
2023-03-26T14:43:18.399Z,63.77
2023-03-26T14:46:06.661Z,61.38
2023-03-26T14:48:59.198Z,60.78
2023-03-26T14:52:06.050Z,60.30
2023-03-26T14:54:44.100Z,58.86
2023-03-26T14:57:52.062Z,58.31
2023-03-26T15:00:32.839Z,59.27
2023-03-26T15:03:52.878Z,59.05
2023-03-26T15:06:43.087Z,58.85
2023-03-26T15:09:52.220Z,57.77
2023-03-26T15:12:48.592Z,57.39
2023-03-26T15:15:42.238Z,55.59
2023-03-26T15:18:35.521Z,54.86
2023-03-26T15:21:38.089Z,55.13
2023-03-26T15:24:18.611Z,54.31
2023-03-26T15:27:34.292Z,57.13
2023-03-26T15:30:59.732Z,56.54
2023-03-26T15:34:06.447Z,55.86
2023-03-26T15:36:59.670Z,52.48
2023-03-26T15:39:59.379Z,45.56
2023-03-26T15:42:42.187Z,42.28
2023-03-26T15:45:40.340Z,44.92
2023-03-26T15:48:12.957Z,52.54
2023-03-26T15:51:25.718Z,44.70
2023-03-26T15:54:17.916Z,44.78
2023-03-26T15:57:02.211Z,43.46
2023-03-26T15:59:57.507Z,43.49
2023-03-26T16:02:32.070Z,42.08
2023-03-26T16:05:23.658Z,49.18
2023-03-26T16:08:39.777Z,45.44
2023-03-26T16:11:11.627Z,48.57
2023-03-26T16:14:04.545Z,47.69
2023-03-26T16:17:06.532Z,50.81
2023-03-26T16:19:38.207Z,52.19
2023-03-26T16:22:34.054Z,54.61
2023-03-26T16:25:27.879Z,54.29
2023-03-26T16:28:13.038Z,54.62
2023-03-26T16:30:44.945Z,54.59
2023-03-26T16:33:20.290Z,54.87
2023-03-26T16:36:30.870Z,55.31
2023-03-26T16:39:08.664Z,56.17
2023-03-26T16:41:43.588Z,57.00
2023-03-26T16:44:36.613Z,55.58
2023-03-26T16:47:14.006Z,55.29
2023-03-26T16:50:08.802Z,56.00
2023-03-26T16:52:57.100Z,56.80
2023-03-26T16:56:14.197Z,58.04
2023-03-26T16:59:02.114Z,59.15
2023-03-26T17:01:47.237Z,59.30
2023-03-26T17:04:23.945Z,59.44
2023-03-26T17:07:23.993Z,60.03
2023-03-26T17:10:19.119Z,60.17
2023-03-26T17:13:02.135Z,60.68
2023-03-26T17:15:46.137Z,59.86
2023-03-26T17:18:42.839Z,60.12
2023-03-26T17:21:47.007Z,59.90
2023-03-26T17:25:05.612Z,60.05
2023-03-26T17:28:25.416Z,57.82
2023-03-26T17:31:16.061Z,58.59
2023-03-26T17:33:53.609Z,58.36
2023-03-26T17:36:40.826Z,57.98
2023-03-26T17:39:38.498Z,57.87
2023-03-26T17:42:16.265Z,57.71
2023-03-26T17:44:55.336Z,57.94
2023-03-26T17:47:27.049Z,58.45
2023-03-26T17:50:13.210Z,60.21
2023-03-26T17:53:01.499Z,57.69
2023-03-26T17:55:40.654Z,58.38
2023-03-26T17:58:27.250Z,58.35
2023-03-26T18:01:32.082Z,57.96
2023-03-26T18:04:11.146Z,59.36
2023-03-26T18:07:00.962Z,61.04
2023-03-26T18:09:50.898Z,62.97
2023-03-26T18:13:00.768Z,65.43
2023-03-26T18:15:43.182Z,66.90
2023-03-26T18:18:22.490Z,70.04
2023-03-26T18:20:54.711Z,75.21
2023-03-26T18:23:34.301Z,75.38
2023-03-26T18:26:39.778Z,75.39
2023-03-26T18:29:29.202Z,76.17
2023-03-26T18:32:18.575Z,75.66
2023-03-26T18:35:18.347Z,73.68
2023-03-26T18:37:56.159Z,75.30
2023-03-26T18:40:34.259Z,74.44
2023-03-26T18:43:06.374Z,75.10
2023-03-26T18:45:46.284Z,74.48
2023-03-26T18:48:22.141Z,74.46
2023-03-26T18:51:00.001Z,72.98
2023-03-26T18:54:07.478Z,71.45
2023-03-26T18:56:42.122Z,70.01
2023-03-26T18:59:32.087Z,68.91
2023-03-26T19:02:11.739Z,69.27
2023-03-26T19:04:47.060Z,68.21
2023-03-26T19:07:24.744Z,67.21
2023-03-26T19:09:57.002Z,66.22
2023-03-26T19:12:31.633Z,65.64
2023-03-26T19:15:14.998Z,65.02
2023-03-26T19:17:52.669Z,66.24
2023-03-26T19:20:29.579Z,66.56
2023-03-26T19:23:01.468Z,66.10
2023-03-26T19:25:55.007Z,65.85
2023-03-26T19:28:32.160Z,65.44
2023-03-26T19:31:20.055Z,66.68
2023-03-26T19:34:01.492Z,66.92
2023-03-26T19:36:33.398Z,66.05
2023-03-26T19:39:12.513Z,65.87
2023-03-26T19:41:51.835Z,65.76
2023-03-26T19:44:29.864Z,66.41
2023-03-26T19:47:31.960Z,65.69
2023-03-26T19:50:20.500Z,65.14
2023-03-26T19:53:34.884Z,65.07
2023-03-26T19:56:13.657Z,65.58
2023-03-26T19:58:45.385Z,68.76
2023-03-26T20:01:24.312Z,67.21
2023-03-26T20:04:05.897Z,65.96
2023-03-26T20:06:43.125Z,65.99
2023-03-26T20:09:15.356Z,64.70
2023-03-26T20:11:47.277Z,65.46
2023-03-26T20:14:19.378Z,66.13
2023-03-26T20:16:51.625Z,65.99
2023-03-26T20:19:23.954Z,67.02
2023-03-26T20:21:55.604Z,66.32
2023-03-26T20:24:33.307Z,65.82
2023-03-26T20:27:04.944Z,67.16
2023-03-26T20:29:36.570Z,66.91
2023-03-26T20:32:27.303Z,67.01
2023-03-26T20:34:59.081Z,69.25
2023-03-26T20:37:30.694Z,69.13
2023-03-26T20:40:02.435Z,67.38
2023-03-26T20:42:34.225Z,67.81
2023-03-26T20:45:19.708Z,67.06
2023-03-26T20:47:51.917Z,65.75
2023-03-26T20:50:27.896Z,65.06
2023-03-26T20:53:00.624Z,66.87
2023-03-26T20:55:32.629Z,65.35
2023-03-26T20:58:04.485Z,65.25
2023-03-26T21:00:36.733Z,66.75
2023-03-26T21:03:12.868Z,66.26
2023-03-26T21:05:45.597Z,65.52
2023-03-26T21:08:19.967Z,64.88
2023-03-26T21:10:52.889Z,66.64
2023-03-26T21:13:39.041Z,66.55
2023-03-26T21:16:12.256Z,66.18
2023-03-26T21:18:44.237Z,66.74
2023-03-26T21:21:43.222Z,66.26
2023-03-26T21:24:23.981Z,66.47
2023-03-26T21:27:17.519Z,66.50
2023-03-26T21:29:49.387Z,66.22
2023-03-26T21:32:22.747Z,67.62
2023-03-26T21:37:29.258Z,68.49
2023-03-26T21:40:01.162Z,68.62
2023-03-26T21:42:33.105Z,66.25
2023-03-26T21:45:05.227Z,64.99
2023-03-26T21:47:37.232Z,65.40
2023-03-26T21:50:12.005Z,66.49
2023-03-26T21:52:43.998Z,65.67
2023-03-26T21:55:17.782Z,65.67
2023-03-26T21:57:58.717Z,64.27
2023-03-26T22:00:47.305Z,65.18
2023-03-26T22:03:57.345Z,65.05
2023-03-26T22:06:37.367Z,66.22
2023-03-26T22:09:15.015Z,65.83
2023-03-26T22:11:48.240Z,65.09
2023-03-26T22:14:19.878Z,64.91
2023-03-26T22:16:51.598Z,66.71
2023-03-26T22:19:23.158Z,66.17
2023-03-26T22:21:54.816Z,66.27
2023-03-26T22:24:26.459Z,67.06
2023-03-26T22:26:58.098Z,66.96
2023-03-26T22:29:29.946Z,66.56
2023-03-26T22:32:01.916Z,67.23
2023-03-26T22:34:33.709Z,66.13
2023-03-26T22:37:05.351Z,66.76
2023-03-26T22:39:37.176Z,66.83
2023-03-26T22:42:08.862Z,67.04
2023-03-26T22:44:40.618Z,65.89
2023-03-26T22:47:12.268Z,67.09
2023-03-26T22:49:44.446Z,68.83
2023-03-26T22:52:16.435Z,67.99
2023-03-26T22:54:48.121Z,68.01
2023-03-26T22:57:19.849Z,71.79
2023-03-26T22:59:52.268Z,75.03
2023-03-26T23:02:24.307Z,76.92
2023-03-26T23:04:56.074Z,76.66
2023-03-26T23:07:27.703Z,74.91
2023-03-26T23:09:59.480Z,72.43
2023-03-26T23:12:33.356Z,70.80
2023-03-26T23:15:06.115Z,70.49
2023-03-26T23:17:38.166Z,70.03
2023-03-26T23:20:10.381Z,70.67
2023-03-26T23:22:42.805Z,71.14
2023-03-26T23:25:14.566Z,71.73
2023-03-26T23:27:46.506Z,71.33
2023-03-26T23:30:18.311Z,69.47
2023-03-26T23:32:50.485Z,70.12
2023-03-26T23:35:22.154Z,68.59
2023-03-26T23:37:53.789Z,67.80
2023-03-26T23:40:25.441Z,68.02
2023-03-26T23:42:56.988Z,67.50
2023-03-26T23:45:28.612Z,67.26
2023-03-26T23:48:01.697Z,66.96
2023-03-26T23:50:33.389Z,66.19
2023-03-26T23:53:05.565Z,67.42
2023-03-26T23:55:37.216Z,67.44
2023-03-26T23:58:08.872Z,65.95
